Terminal Aerodrome Forecast
Issued by NWS Quad Cities IA IL

Home | Current Version | Previous Version | Text Only | Print | Product List | Glossary On
Versions: 1 2 3 4 5 6 7 8 9 10 11 12 13 14 15 16 17 18
737
FTUS43 KDVN 141140
TAFMLI
TAF
KMLI 141140Z 1412/1512 13012KT 3SM -SN BKN040 OVC050
     FM141500 14015G22KT 1SM -SN BR OVC009
     FM142000 14012KT 2SM -SN BR OVC012
     FM142300 12009KT 5SM -SN BR OVC020
     FM150200 12006KT 6SM BR OVC015=

USA.gov is the U.S. government's official web portal to all federal, state and local government web resources and services.